Herk-de-Stad, Belgium
Current Conditions -  °F | °C
As of 8:25 PM on Friday 31 Oct 2014 (Local Time) from EBDT Reporting Station
Clear Clear  
Wind Chill: 57°   Ceiling: Unl
Heat Index: 57°   Visibility: 6mi
Dew Point: 52°   Wind: 9mph
Humidity: 82%   Direction: 170°S
Pressure: 30.15"   Gusts: NA
Location:  50.94°N, 5.17°E
Report Text: EBDT 311925Z AUTO 17008KT 9999 NCD 14/11 Q1021 BLU
Loading
Personal Weather Stations






























Interactive Weather Map New forecast layout! Learn more

10-Day Weather Forecast

Advertisements
Track Severe Weather on mobile